createdAt,value
2023-02-11T00:00:13.764Z,-4.31
2023-02-11T00:02:40.369Z,-4.36
2023-02-11T00:05:07.062Z,-4.42
2023-02-11T00:07:35.355Z,-4.48
2023-02-11T00:10:08.038Z,-4.51
2023-02-11T00:12:36.237Z,-4.45
2023-02-11T00:15:03.346Z,-4.37
2023-02-11T00:17:29.970Z,-4.27
2023-02-11T00:19:56.639Z,-4.19
2023-02-11T00:22:23.666Z,-4.10
2023-02-11T00:24:50.253Z,-4.05
2023-02-11T00:27:16.782Z,-4.02
2023-02-11T00:29:43.364Z,-4.02
2023-02-11T00:32:10.779Z,-4.05
2023-02-11T00:34:38.282Z,-4.02
2023-02-11T00:37:05.581Z,-4.04
2023-02-11T00:39:32.355Z,-4.10
2023-02-11T00:41:58.988Z,-4.13
2023-02-11T00:44:25.646Z,-4.22
2023-02-11T00:46:52.208Z,-4.23
2023-02-11T00:49:19.292Z,-4.22
2023-02-11T00:51:45.941Z,-4.19
2023-02-11T00:54:12.507Z,-4.24
2023-02-11T00:56:39.156Z,-4.31
2023-02-11T00:59:05.753Z,-4.43
2023-02-11T01:01:32.402Z,-4.53
2023-02-11T01:03:59.032Z,-4.69
2023-02-11T01:06:26.597Z,-4.82
2023-02-11T01:08:53.250Z,-4.91
2023-02-11T01:11:21.910Z,-4.91
2023-02-11T01:13:49.888Z,-4.84
2023-02-11T01:16:17.138Z,-4.80
2023-02-11T01:18:44.714Z,-4.77
2023-02-11T01:21:11.658Z,-4.77
2023-02-11T01:23:38.202Z,-4.74
2023-02-11T01:26:05.145Z,-4.78
2023-02-11T01:28:32.251Z,-4.79
2023-02-11T01:31:00.955Z,-4.84
2023-02-11T01:33:27.804Z,-4.92
2023-02-11T01:35:54.447Z,-4.97
2023-02-11T01:38:24.392Z,-5.00
2023-02-11T01:40:53.288Z,-5.02
2023-02-11T01:43:20.642Z,-5.01
2023-02-11T01:45:47.271Z,-5.00
2023-02-11T01:48:28.254Z,-4.95
2023-02-11T01:51:02.841Z,-4.96
2023-02-11T01:53:48.528Z,-4.98
2023-02-11T01:56:37.124Z,-5.01
2023-02-11T01:59:11.200Z,-5.01
2023-02-11T02:01:40.569Z,-4.99
2023-02-11T02:04:09.612Z,-4.98
2023-02-11T02:06:44.223Z,-4.99
2023-02-11T02:09:20.067Z,-5.01
2023-02-11T02:11:46.751Z,-5.01
2023-02-11T02:14:13.707Z,-5.03
2023-02-11T02:16:40.427Z,-5.03
2023-02-11T02:19:30.109Z,-5.01
2023-02-11T02:22:14.374Z,-4.97
2023-02-11T02:25:06.724Z,-4.93
2023-02-11T02:27:40.441Z,-4.94
2023-02-11T02:30:38.787Z,-4.96
2023-02-11T02:33:22.377Z,-4.94
2023-02-11T02:36:13.436Z,-4.92
2023-02-11T02:38:53.352Z,-4.91
2023-02-11T02:41:26.870Z,-4.86
2023-02-11T02:43:54.053Z,-4.85
2023-02-11T02:46:24.968Z,-4.85
2023-02-11T02:48:53.706Z,-4.89
2023-02-11T02:51:32.293Z,-4.92
2023-02-11T02:54:14.084Z,-4.94
2023-02-11T02:56:44.689Z,-4.93
2023-02-11T02:59:49.582Z,-4.90
2023-02-11T03:02:37.102Z,-4.85
2023-02-11T03:05:15.730Z,-4.85
2023-02-11T03:08:12.319Z,-4.84
2023-02-11T03:10:43.914Z,-4.84
2023-02-11T03:13:11.183Z,-4.87
2023-02-11T03:15:47.722Z,-4.88
2023-02-11T03:18:18.701Z,-4.85
2023-02-11T03:20:50.760Z,-4.83
2023-02-11T03:23:37.840Z,-4.84
2023-02-11T03:26:38.049Z,-4.86
2023-02-11T03:29:07.568Z,-4.86
2023-02-11T03:31:55.511Z,-4.86
2023-02-11T03:34:27.750Z,-4.86
2023-02-11T03:37:00.362Z,-4.85
2023-02-11T03:39:44.470Z,-4.88
2023-02-11T03:42:13.492Z,-4.89
2023-02-11T03:44:56.515Z,-4.90
2023-02-11T03:47:27.475Z,-4.88
2023-02-11T03:49:58.192Z,-4.84
2023-02-11T03:52:26.342Z,-4.82
2023-02-11T03:54:58.033Z,-4.84
2023-02-11T03:57:24.607Z,-4.91
2023-02-11T03:59:52.173Z,-5.05
2023-02-11T04:02:19.869Z,-5.08
2023-02-11T04:04:47.505Z,-5.12
2023-02-11T04:07:14.160Z,-5.20
2023-02-11T04:09:40.810Z,-5.31
2023-02-11T04:12:07.705Z,-5.35
2023-02-11T04:14:34.350Z,-5.34
2023-02-11T04:17:00.922Z,-5.39
2023-02-11T04:19:27.469Z,-5.53
2023-02-11T04:21:54.033Z,-5.68
2023-02-11T04:24:20.665Z,-5.74
2023-02-11T04:26:47.248Z,-5.83
2023-02-11T04:29:13.820Z,-5.86
2023-02-11T04:31:40.497Z,-5.84
2023-02-11T04:34:07.141Z,-5.83
2023-02-11T04:36:33.697Z,-5.76
2023-02-11T04:39:00.349Z,-5.73
2023-02-11T04:41:26.914Z,-5.84
2023-02-11T04:43:53.469Z,-5.77
2023-02-11T04:46:20.037Z,-5.84
2023-02-11T04:48:46.672Z,-5.91
2023-02-11T04:51:13.379Z,-5.95
2023-02-11T04:53:40.158Z,-6.04
2023-02-11T04:56:07.018Z,-6.15
2023-02-11T04:58:33.869Z,-6.15
2023-02-11T05:01:12.382Z,-6.08
2023-02-11T05:03:39.381Z,-6.04
2023-02-11T05:06:06.511Z,-5.97
2023-02-11T05:08:33.924Z,-6.03
2023-02-11T05:11:02.248Z,-6.07
2023-02-11T05:13:30.395Z,-6.14
2023-02-11T05:15:57.005Z,-6.30
2023-02-11T05:18:23.714Z,-6.43
2023-02-11T05:20:50.264Z,-6.44
2023-02-11T05:23:16.778Z,-6.37
2023-02-11T05:25:43.341Z,-6.45
2023-02-11T05:28:09.891Z,-6.50
2023-02-11T05:30:36.589Z,-6.47
2023-02-11T05:33:03.252Z,-6.47
2023-02-11T05:35:29.806Z,-6.61
2023-02-11T05:37:56.336Z,-6.73
2023-02-11T05:40:22.912Z,-6.82
2023-02-11T05:42:49.478Z,-6.87
2023-02-11T05:45:16.046Z,-6.92
2023-02-11T05:47:42.642Z,-6.94
2023-02-11T05:50:09.466Z,-6.98
2023-02-11T05:52:36.061Z,-6.98
2023-02-11T05:55:02.847Z,-6.94
2023-02-11T05:57:29.403Z,-6.92
2023-02-11T05:59:55.952Z,-6.89
2023-02-11T06:02:22.628Z,-6.78
2023-02-11T06:04:49.204Z,-6.81
2023-02-11T06:07:15.812Z,-6.88
2023-02-11T06:09:42.456Z,-6.92
2023-02-11T06:12:09.029Z,-6.91
2023-02-11T06:14:35.570Z,-6.91
2023-02-11T06:17:02.262Z,-6.89
2023-02-11T06:19:29.128Z,-6.88
2023-02-11T06:21:56.324Z,-6.84
2023-02-11T06:24:47.766Z,-6.81
2023-02-11T06:27:09.821Z,-6.74
2023-02-11T06:29:36.413Z,-6.66
2023-02-11T06:32:03.193Z,-6.56
2023-02-11T06:34:29.900Z,-6.44
2023-02-11T06:36:56.493Z,-6.27
2023-02-11T06:39:23.063Z,-6.13
2023-02-11T06:41:50.069Z,-5.98
2023-02-11T06:44:16.613Z,-5.84
2023-02-11T06:46:43.223Z,-5.72
2023-02-11T06:49:09.992Z,-5.63
2023-02-11T06:51:37.015Z,-5.56
2023-02-11T06:54:05.877Z,-5.46
2023-02-11T06:56:33.589Z,-5.35
2023-02-11T06:59:00.260Z,-5.21
2023-02-11T07:01:27.932Z,-5.08
2023-02-11T07:03:54.870Z,-4.93
2023-02-11T07:06:24.796Z,-4.80
2023-02-11T07:08:51.399Z,-4.65
2023-02-11T07:11:24.690Z,-4.52
2023-02-11T07:13:53.249Z,-4.38
2023-02-11T07:16:20.656Z,-4.23
2023-02-11T07:18:48.706Z,-4.10
2023-02-11T07:21:18.281Z,-3.95
2023-02-11T07:23:45.073Z,-3.82
2023-02-11T07:26:14.040Z,-3.69
2023-02-11T07:28:41.158Z,-3.53
2023-02-11T07:31:08.449Z,-3.33
2023-02-11T07:33:36.839Z,-3.18
2023-02-11T07:36:05.503Z,-2.99
2023-02-11T07:38:33.302Z,-2.76
2023-02-11T07:41:01.571Z,-2.50
2023-02-11T07:43:28.642Z,-2.23
2023-02-11T07:45:55.240Z,-1.86
2023-02-11T07:48:21.880Z,-1.47
2023-02-11T07:50:48.407Z,-1.17
2023-02-11T07:53:14.971Z,-0.85
2023-02-11T07:55:43.444Z,-0.68
2023-02-11T07:58:10.034Z,-0.57
2023-02-11T08:00:36.952Z,-0.60
2023-02-11T08:03:03.930Z,-0.57
2023-02-11T08:05:30.553Z,-0.57
2023-02-11T08:07:57.070Z,-0.51
2023-02-11T08:10:23.666Z,-0.44
2023-02-11T08:12:50.210Z,-0.37
2023-02-11T08:15:16.799Z,-0.30
2023-02-11T08:17:43.348Z,-0.09
2023-02-11T08:20:10.400Z,0.03
2023-02-11T08:22:37.052Z,0.07
2023-02-11T08:25:03.762Z,0.12
2023-02-11T08:27:31.106Z,0.17
2023-02-11T08:29:59.521Z,0.22
2023-02-11T08:32:26.801Z,0.28
2023-02-11T08:34:53.961Z,0.29
2023-02-11T08:37:20.765Z,0.30
2023-02-11T08:39:47.531Z,0.38
2023-02-11T08:42:15.627Z,0.39
2023-02-11T08:44:43.357Z,0.42
2023-02-11T08:47:10.009Z,0.50
2023-02-11T08:49:36.660Z,0.48
2023-02-11T08:52:04.234Z,0.52
2023-02-11T08:54:31.418Z,0.63
2023-02-11T08:56:58.600Z,0.67
2023-02-11T08:59:25.219Z,0.69
2023-02-11T09:01:51.832Z,0.71
2023-02-11T09:04:18.779Z,0.73
2023-02-11T09:06:45.677Z,0.77
2023-02-11T09:09:14.405Z,0.78
2023-02-11T09:11:42.322Z,0.88
2023-02-11T09:14:19.088Z,1.03
2023-02-11T09:16:45.864Z,1.20
2023-02-11T09:19:12.476Z,1.53
2023-02-11T09:21:40.290Z,1.81
2023-02-11T09:24:07.059Z,2.04
2023-02-11T09:26:35.632Z,2.27
2023-02-11T09:29:03.325Z,2.71
2023-02-11T09:31:32.654Z,3.19
2023-02-11T09:34:02.604Z,3.46
2023-02-11T09:36:35.012Z,3.73
2023-02-11T09:39:02.772Z,3.95
2023-02-11T09:41:50.768Z,4.15
2023-02-11T09:44:25.109Z,4.26
2023-02-11T09:47:22.602Z,4.57
2023-02-11T09:49:52.814Z,4.87
2023-02-11T09:52:45.110Z,5.17
2023-02-11T09:55:17.103Z,5.17
2023-02-11T09:57:43.677Z,5.06
2023-02-11T10:00:24.200Z,5.42
2023-02-11T10:03:15.556Z,5.47
2023-02-11T10:06:00.347Z,5.43
2023-02-11T10:08:49.150Z,5.32
2023-02-11T10:11:38.810Z,5.33
2023-02-11T10:14:36.298Z,5.55
2023-02-11T10:17:31.948Z,5.29
2023-02-11T10:20:19.632Z,5.22
2023-02-11T10:22:52.538Z,5.14
2023-02-11T10:25:34.601Z,5.35
2023-02-11T10:28:10.057Z,5.58
2023-02-11T10:31:06.998Z,5.86
2023-02-11T10:33:36.644Z,6.15
2023-02-11T10:36:04.702Z,6.64
2023-02-11T10:38:33.023Z,7.22
2023-02-11T10:41:00.186Z,7.59
2023-02-11T10:43:29.661Z,7.39
2023-02-11T10:45:57.433Z,7.56
2023-02-11T10:48:39.945Z,7.53
2023-02-11T10:51:28.368Z,7.47
2023-02-11T10:54:04.227Z,7.17
2023-02-11T10:56:34.660Z,7.21
2023-02-11T10:59:02.749Z,7.40
2023-02-11T11:01:53.599Z,7.24
2023-02-11T11:04:38.731Z,6.99
2023-02-11T11:07:17.285Z,7.12
2023-02-11T11:09:49.207Z,7.45
2023-02-11T11:12:33.044Z,7.49
2023-02-11T11:15:16.426Z,7.63
2023-02-11T11:17:45.296Z,7.38
2023-02-11T11:20:23.695Z,7.55
2023-02-11T11:22:52.509Z,7.59
2023-02-11T11:25:29.962Z,7.46
2023-02-11T11:28:00.837Z,7.37
2023-02-11T11:30:39.218Z,7.37
2023-02-11T11:33:20.297Z,7.62
2023-02-11T11:35:57.933Z,8.02
2023-02-11T11:38:24.669Z,8.38
2023-02-11T11:41:19.454Z,8.59
2023-02-11T11:44:13.467Z,9.35
2023-02-11T11:46:44.113Z,10.71
2023-02-11T11:49:29.878Z,11.08
2023-02-11T11:52:34.611Z,11.40
2023-02-11T11:55:22.989Z,10.40
2023-02-11T11:57:50.168Z,9.82
2023-02-11T12:00:44.093Z,9.61
2023-02-11T12:03:37.193Z,9.47
2023-02-11T12:06:22.443Z,10.60
2023-02-11T12:08:48.973Z,10.79
2023-02-11T12:11:31.309Z,10.53
2023-02-11T12:14:37.702Z,10.05
2023-02-11T12:17:14.350Z,9.59
2023-02-11T12:19:47.224Z,9.45
2023-02-11T12:22:25.907Z,9.35
2023-02-11T12:25:09.999Z,9.06
2023-02-11T12:27:54.941Z,9.23
2023-02-11T12:30:40.421Z,9.37
2023-02-11T12:33:22.749Z,9.30
2023-02-11T12:35:59.346Z,9.29
2023-02-11T12:38:34.805Z,9.17
2023-02-11T12:41:17.664Z,9.62
2023-02-11T12:43:45.061Z,9.80
2023-02-11T12:46:33.441Z,9.45
2023-02-11T12:49:35.504Z,8.99
2023-02-11T12:52:20.324Z,8.82
2023-02-11T12:55:15.621Z,8.89
2023-02-11T12:57:44.447Z,8.95
2023-02-11T13:00:18.485Z,9.13
2023-02-11T13:03:11.727Z,8.98
2023-02-11T13:05:44.467Z,8.69
2023-02-11T13:08:16.320Z,9.05
2023-02-11T13:10:47.919Z,9.49
2023-02-11T13:13:30.615Z,10.57
2023-02-11T13:16:06.167Z,10.76
2023-02-11T13:18:37.350Z,11.14
2023-02-11T13:21:13.002Z,10.79
2023-02-11T13:23:41.857Z,10.51
2023-02-11T13:26:26.933Z,10.24
2023-02-11T13:29:06.008Z,10.01
2023-02-11T13:31:32.815Z,9.53
2023-02-11T13:33:59.415Z,9.78
2023-02-11T13:36:28.651Z,9.94
2023-02-11T13:39:06.449Z,10.45
2023-02-11T13:41:39.530Z,10.58
2023-02-11T13:44:08.794Z,10.23
2023-02-11T13:46:54.196Z,9.84
2023-02-11T13:49:24.897Z,9.37
2023-02-11T13:51:52.940Z,9.00
2023-02-11T13:54:40.005Z,8.95
2023-02-11T13:57:27.977Z,8.73
2023-02-11T14:00:01.035Z,8.62
2023-02-11T14:02:45.945Z,8.69
2023-02-11T14:05:34.068Z,8.63
2023-02-11T14:08:28.347Z,8.64
2023-02-11T14:11:10.930Z,8.54
2023-02-11T14:14:17.836Z,8.54
2023-02-11T14:17:00.193Z,8.56
2023-02-11T14:19:34.928Z,8.53
2023-02-11T14:22:05.856Z,8.57
2023-02-11T14:24:32.331Z,8.79
2023-02-11T14:27:06.880Z,8.92
2023-02-11T14:29:38.666Z,8.92
2023-02-11T14:32:23.250Z,8.83
2023-02-11T14:35:15.382Z,8.85
2023-02-11T14:37:57.269Z,8.85
2023-02-11T14:40:34.951Z,8.58
2023-02-11T14:43:32.437Z,8.49
2023-02-11T14:46:03.004Z,8.51
2023-02-11T14:48:38.009Z,8.52
2023-02-11T14:51:16.260Z,8.48
2023-02-11T14:53:48.320Z,8.65
2023-02-11T14:56:27.911Z,8.45
2023-02-11T14:58:55.643Z,8.40
2023-02-11T15:01:30.210Z,8.38
2023-02-11T15:03:58.271Z,8.41
2023-02-11T15:06:30.752Z,8.27
2023-02-11T15:09:02.512Z,8.16
2023-02-11T15:11:32.535Z,8.09
2023-02-11T15:14:07.866Z,7.69
2023-02-11T15:16:35.398Z,7.57
2023-02-11T15:19:07.254Z,7.41
2023-02-11T15:21:35.704Z,7.37
2023-02-11T15:24:08.281Z,7.21
2023-02-11T15:26:34.877Z,7.14
2023-02-11T15:29:01.463Z,7.14
2023-02-11T15:31:28.612Z,7.05
2023-02-11T15:33:55.676Z,6.87
2023-02-11T15:36:28.449Z,6.88
2023-02-11T15:39:17.359Z,6.89
2023-02-11T15:41:44.581Z,6.78
2023-02-11T15:44:32.432Z,6.61
2023-02-11T15:46:59.733Z,6.48
2023-02-11T15:49:27.048Z,6.37
2023-02-11T15:51:57.176Z,6.38
2023-02-11T15:54:27.392Z,6.27
2023-02-11T15:57:01.513Z,6.16
2023-02-11T15:59:50.081Z,6.04
2023-02-11T16:02:27.706Z,5.95
2023-02-11T16:04:57.788Z,5.85
2023-02-11T16:07:47.384Z,5.75
2023-02-11T16:10:25.808Z,5.64
2023-02-11T16:13:19.989Z,5.58
2023-02-11T16:15:53.243Z,5.53
2023-02-11T16:18:39.322Z,5.40
2023-02-11T16:21:15.861Z,5.21
2023-02-11T16:23:48.938Z,5.08
2023-02-11T16:26:39.206Z,5.04
2023-02-11T16:29:10.505Z,4.86
2023-02-11T16:31:40.208Z,4.79
2023-02-11T16:34:25.502Z,4.72
2023-02-11T16:36:53.006Z,4.61
2023-02-11T16:39:23.756Z,4.57
2023-02-11T16:41:51.968Z,4.52
2023-02-11T16:44:19.130Z,4.53
2023-02-11T16:46:46.090Z,4.54
2023-02-11T16:49:24.005Z,4.62
2023-02-11T16:51:52.644Z,4.59
2023-02-11T16:54:20.103Z,4.50
2023-02-11T16:56:46.684Z,4.45
2023-02-11T16:59:13.294Z,4.35
2023-02-11T17:01:41.527Z,4.33
2023-02-11T17:04:16.525Z,4.20
2023-02-11T17:06:45.129Z,4.14
2023-02-11T17:09:24.321Z,4.15
2023-02-11T17:11:51.656Z,4.19
2023-02-11T17:14:19.219Z,4.23
2023-02-11T17:16:47.180Z,4.27
2023-02-11T17:19:16.684Z,4.33
2023-02-11T17:21:44.565Z,4.32
2023-02-11T17:24:11.726Z,4.38
2023-02-11T17:26:39.077Z,4.42
2023-02-11T17:29:07.244Z,4.45
2023-02-11T17:31:34.777Z,4.46
2023-02-11T17:34:01.658Z,4.41
2023-02-11T17:36:31.259Z,4.38
2023-02-11T17:38:58.743Z,4.34
2023-02-11T17:41:25.635Z,4.27
2023-02-11T17:43:52.394Z,4.16
2023-02-11T17:46:19.363Z,4.19
2023-02-11T17:48:46.071Z,4.20
2023-02-11T17:51:27.850Z,4.20
2023-02-11T17:53:56.753Z,4.22
2023-02-11T17:56:23.334Z,4.10
2023-02-11T17:58:50.280Z,4.06
2023-02-11T18:01:16.925Z,4.05
2023-02-11T18:03:43.501Z,4.02
2023-02-11T18:06:11.600Z,3.97
2023-02-11T18:08:38.566Z,3.97
2023-02-11T18:11:12.619Z,4.00
2023-02-11T18:13:39.162Z,4.08
2023-02-11T18:16:08.656Z,4.07
2023-02-11T18:18:35.565Z,4.11
2023-02-11T18:21:04.062Z,4.03
2023-02-11T18:23:30.705Z,4.00
2023-02-11T18:25:57.463Z,4.05
2023-02-11T18:28:24.110Z,4.06
2023-02-11T18:30:58.525Z,4.00
2023-02-11T18:33:25.356Z,3.90
2023-02-11T18:35:52.337Z,3.87
2023-02-11T18:38:19.608Z,3.87
2023-02-11T18:40:50.556Z,3.98
2023-02-11T18:43:17.882Z,4.03
2023-02-11T18:45:47.872Z,4.00
2023-02-11T18:48:15.095Z,3.95
2023-02-11T18:50:44.567Z,3.92
2023-02-11T18:53:12.848Z,4.00
2023-02-11T18:55:43.693Z,4.09
2023-02-11T18:58:10.382Z,4.14
2023-02-11T19:00:40.370Z,4.12
2023-02-11T19:03:07.157Z,4.10
2023-02-11T19:05:45.372Z,4.10
2023-02-11T19:08:13.169Z,4.08
2023-02-11T19:10:44.807Z,4.10
2023-02-11T19:13:12.107Z,4.05
2023-02-11T19:15:45.823Z,4.04
2023-02-11T19:18:14.507Z,3.98
2023-02-11T19:20:42.750Z,3.89
2023-02-11T19:23:09.992Z,3.92
2023-02-11T19:25:37.109Z,3.86
2023-02-11T19:28:03.978Z,3.85
2023-02-11T19:30:30.786Z,3.85
2023-02-11T19:32:57.847Z,3.81
2023-02-11T19:35:25.328Z,3.78
2023-02-11T19:37:52.102Z,3.71
2023-02-11T19:40:19.283Z,3.66
2023-02-11T19:42:45.936Z,3.62
2023-02-11T19:45:12.645Z,3.61
2023-02-11T19:47:39.299Z,3.61
2023-02-11T19:50:06.701Z,3.57
2023-02-11T19:52:33.331Z,3.60
2023-02-11T19:55:00.804Z,3.64
2023-02-11T19:57:27.432Z,3.63
2023-02-11T19:59:55.094Z,3.60
2023-02-11T20:02:21.923Z,3.61
2023-02-11T20:04:48.685Z,3.60
2023-02-11T20:07:15.268Z,3.61
2023-02-11T20:09:42.644Z,3.63
2023-02-11T20:12:09.716Z,3.63
2023-02-11T20:14:36.426Z,3.67
2023-02-11T20:17:03.021Z,3.81
2023-02-11T20:19:30.717Z,3.88
2023-02-11T20:21:57.475Z,3.98
2023-02-11T20:24:24.915Z,4.00
2023-02-11T20:26:55.601Z,4.08
2023-02-11T20:29:23.768Z,4.13
2023-02-11T20:31:51.018Z,4.16
2023-02-11T20:34:17.997Z,4.15
2023-02-11T20:36:51.722Z,4.21
2023-02-11T20:39:18.841Z,4.26
2023-02-11T20:41:46.198Z,4.18
2023-02-11T20:44:13.310Z,4.14
2023-02-11T20:46:43.230Z,4.11
2023-02-11T20:49:20.990Z,4.12
2023-02-11T20:51:47.933Z,4.16
2023-02-11T20:54:17.999Z,4.25
2023-02-11T20:56:47.843Z,4.42
2023-02-11T20:59:15.084Z,4.61
2023-02-11T21:01:44.093Z,4.78
2023-02-11T21:04:22.506Z,4.87
2023-02-11T21:06:52.283Z,4.93
2023-02-11T21:09:22.153Z,4.99
2023-02-11T21:11:51.613Z,5.01
2023-02-11T21:14:19.666Z,5.07
2023-02-11T21:16:47.317Z,5.07
2023-02-11T21:19:14.136Z,5.11
2023-02-11T21:21:41.040Z,5.16
2023-02-11T21:24:08.637Z,5.16
2023-02-11T21:26:35.785Z,5.15
2023-02-11T21:29:04.688Z,5.20
2023-02-11T21:31:32.987Z,5.18
2023-02-11T21:33:59.710Z,5.18
2023-02-11T21:36:28.720Z,5.23
2023-02-11T21:38:55.589Z,5.23
2023-02-11T21:41:22.901Z,5.26
2023-02-11T21:43:49.946Z,5.30
2023-02-11T21:46:18.077Z,5.36
2023-02-11T21:48:45.117Z,5.29
2023-02-11T21:51:15.123Z,5.28
2023-02-11T21:53:41.807Z,5.30
2023-02-11T21:56:17.105Z,5.33
2023-02-11T21:58:44.842Z,5.36
2023-02-11T22:01:17.729Z,5.31
2023-02-11T22:03:45.575Z,5.30
2023-02-11T22:06:21.098Z,5.32
2023-02-11T22:08:51.171Z,5.28
2023-02-11T22:11:18.219Z,5.17
2023-02-11T22:13:45.437Z,5.14
2023-02-11T22:16:14.977Z,5.08
2023-02-11T22:18:42.786Z,5.06
2023-02-11T22:21:12.233Z,5.00
2023-02-11T22:23:40.046Z,4.90
2023-02-11T22:26:09.867Z,4.86
2023-02-11T22:28:38.886Z,4.84
2023-02-11T22:31:05.627Z,4.86
2023-02-11T22:33:32.610Z,4.83
2023-02-11T22:36:01.138Z,4.82
2023-02-11T22:38:31.644Z,4.79
2023-02-11T22:40:59.857Z,4.78
2023-02-11T22:43:27.814Z,4.70
2023-02-11T22:45:56.445Z,4.67
2023-02-11T22:48:23.359Z,4.66
2023-02-11T22:50:49.982Z,4.66
2023-02-11T22:53:16.580Z,4.63
2023-02-11T22:55:43.193Z,4.68
2023-02-11T22:58:09.993Z,4.63
2023-02-11T23:00:40.310Z,4.61
2023-02-11T23:03:08.601Z,4.63
2023-02-11T23:05:39.839Z,4.60
2023-02-11T23:08:11.212Z,4.60
2023-02-11T23:10:39.715Z,4.59
2023-02-11T23:13:08.317Z,4.55
2023-02-11T23:15:39.788Z,4.54
2023-02-11T23:18:06.880Z,4.54
2023-02-11T23:20:39.445Z,4.53
2023-02-11T23:23:06.015Z,4.54
2023-02-11T23:25:33.648Z,4.46
2023-02-11T23:28:01.053Z,4.43
2023-02-11T23:30:28.626Z,4.36
2023-02-11T23:32:55.371Z,4.30
2023-02-11T23:35:23.196Z,4.29
2023-02-11T23:37:50.786Z,4.30
2023-02-11T23:40:19.056Z,4.29
2023-02-11T23:42:46.016Z,4.28
2023-02-11T23:45:12.610Z,4.31
2023-02-11T23:47:39.727Z,4.36
2023-02-11T23:50:10.550Z,4.37
2023-02-11T23:52:37.293Z,4.33
2023-02-11T23:55:04.266Z,4.29
2023-02-11T23:57:34.621Z,4.23
